Time;durP1;ratioP1;P1;durP2;ratioP2;P2;SDS_P1;SDS_P2;PMS_P1;PMS_P2;Temp;Humidity;BMP_temperature;BMP_pressure;BME280_temperature;BME280_humidity;BME280_pressure;Samples;Min_cycle;Max_cycle;Signal;HPM_P1;HPM_P2
2022/06/09 00:00:19;;;;;;;;;1.25;1.25;;;;;15.73;73.86;100744.22;5049717;28;8899;-68
2022/06/09 00:02:50;;;;;;;;;1.75;1.75;;;;;15.72;74.20;100734.44;5040625;28;8833;-68
2022/06/09 00:05:17;;;;;;;;;2.00;2.00;;;;;15.71;74.00;100735.47;5037230;28;8939;-68
2022/06/09 00:07:47;;;;;;;;;1.50;1.00;;;;;15.69;73.93;100740.31;5049480;28;8920;-68
2022/06/09 00:10:22;;;;;;;;;2.00;1.00;;;;;15.68;73.96;100739.50;5034369;28;8898;-69
2022/06/09 00:12:48;;;;;;;;;3.67;1.33;;;;;15.67;73.68;100748.66;5032082;28;8911;-68
2022/06/09 00:15:15;;;;;;;;;1.50;1.50;;;;;15.64;73.92;100749.13;5042254;28;8929;-67
2022/06/09 00:17:42;;;;;;;;;2.00;2.00;;;;;15.62;73.90;100759.34;5040451;28;9521;-68
2022/06/09 00:20:11;;;;;;;;;2.00;1.00;;;;;15.61;74.00;100759.59;5034875;28;8832;-68
2022/06/09 00:22:39;;;;;;;;;1.67;1.33;;;;;15.60;73.87;100753.34;5044904;28;9791;-68
2022/06/09 00:25:06;;;;;;;;;1.00;1.00;;;;;15.57;73.68;100762.75;5035293;28;8996;-68
2022/06/09 00:27:32;;;;;;;;;1.75;1.00;;;;;15.57;73.76;100761.94;5039739;28;8898;-68
2022/06/09 00:29:59;;;;;;;;;1.67;1.67;;;;;15.56;73.64;100757.59;5041709;28;8876;-68
2022/06/09 00:32:25;;;;;;;;;1.00;1.00;;;;;15.56;73.70;100769.25;5047954;28;8911;-67
2022/06/09 00:34:55;;;;;;;;;1.00;1.00;;;;;15.52;73.67;100768.06;5033910;28;8983;-68
2022/06/09 00:37:21;;;;;;;;;4.33;3.00;;;;;15.50;73.75;100770.16;5048029;28;9016;-68
2022/06/09 00:39:48;;;;;;;;;1.00;1.00;;;;;15.50;73.77;100770.16;5037460;28;9044;-68
2022/06/09 00:42:14;;;;;;;;;2.00;2.00;;;;;15.49;73.85;100762.25;5044685;28;8985;-69
2022/06/09 00:44:40;;;;;;;;;2.67;2.67;;;;;15.50;73.83;100781.00;5036495;28;8929;-67
2022/06/09 00:47:21;;;;;;;;;2.00;2.00;;;;;15.49;73.77;100783.97;5046730;28;9854;-66
2022/06/09 00:50:05;;;;;;;;;1.00;1.00;;;;;15.47;73.42;100789.59;5044556;28;9134;-67
2022/06/09 00:52:39;;;;;;;;;2.00;1.67;;;;;15.48;73.56;100791.28;5051728;28;8913;-66
2022/06/09 00:55:11;;;;;;;;;1.33;1.33;;;;;15.49;73.64;100794.81;5038809;28;9839;-67
2022/06/09 00:57:44;;;;;;;;;2.00;1.00;;;;;15.49;73.81;100800.25;5052586;28;9848;-67
2022/06/09 01:00:18;;;;;;;;;1.00;1.00;;;;;15.45;73.67;100788.19;5037873;28;8909;-67
2022/06/09 01:02:45;;;;;;;;;2.00;2.00;;;;;15.44;73.68;100792.78;5049498;28;8993;-66
2022/06/09 01:05:14;;;;;;;;;2.00;1.25;;;;;15.45;73.81;100796.31;5039538;28;9621;-66
2022/06/09 01:07:46;;;;;;;;;2.33;2.00;;;;;15.43;73.57;100795.72;5041760;28;8824;-66
2022/06/09 01:10:14;;;;;;;;;1.50;1.00;;;;;15.41;73.55;100803.25;5048183;28;9694;-67
2022/06/09 01:12:43;;;;;;;;;2.00;2.00;;;;;15.37;73.72;100805.59;5050216;28;8805;-67
2022/06/09 01:15:13;;;;;;;;;3.67;3.67;;;;;15.32;73.74;100803.56;5038977;28;9733;-67
2022/06/09 01:18:09;;;;;;;;;2.00;2.00;;;;;15.31;74.19;100804.63;5052156;28;9118;-67
2022/06/09 01:21:17;;;;;;;;;1.33;1.33;;;;;15.33;74.14;100807.09;5024544;28;9078;-67
2022/06/09 01:24:08;;;;;;;;;6.67;3.67;;;;;15.32;73.78;100795.44;5044855;28;9082;-68
2022/06/09 01:27:18;;;;;;;;;1.67;1.67;;;;;15.29;73.61;100795.88;5035425;28;9770;-68
2022/06/09 01:30:22;;;;;;;;;2.00;1.33;;;;;15.31;73.87;100804.63;5040821;28;9144;-68
2022/06/09 01:33:08;;;;;;;;;1.67;1.67;;;;;15.29;73.55;100806.72;5035750;28;9066;-67
2022/06/09 01:36:00;;;;;;;;;1.00;1.00;;;;;15.30;73.30;100807.53;5042012;28;8997;-68
2022/06/09 01:38:26;;;;;;;;;1.00;1.00;;;;;15.26;73.26;100815.31;5048796;28;8810;-68
2022/06/09 01:40:53;;;;;;;;;5.33;2.33;;;;;15.28;73.31;100810.50;5047818;28;8817;-67
2022/06/09 01:43:19;;;;;;;;;2.25;2.25;;;;;15.28;73.59;100815.09;5039809;28;9656;-68
2022/06/09 01:46:00;;;;;;;;;4.25;2.00;;;;;15.27;73.33;100818.84;5040319;28;8887;-67
2022/06/09 01:48:28;;;;;;;;;0.50;0.50;;;;;15.27;73.24;100825.13;5048582;28;8889;-68
2022/06/09 01:51:03;;;;;;;;;2.33;1.00;;;;;15.27;73.38;100824.25;5047290;28;8821;-68
2022/06/09 01:53:43;;;;;;;;;1.00;1.00;;;;;15.26;73.28;100820.72;5041012;28;9055;-68
2022/06/09 01:56:16;;;;;;;;;1.00;1.00;;;;;15.24;73.53;100817.44;5036876;28;9071;-67
2022/06/09 01:58:49;;;;;;;;;1.50;1.25;;;;;15.24;73.39;100822.84;5047932;28;8922;-67
2022/06/09 02:01:19;;;;;;;;;2.00;1.00;;;;;15.25;73.56;100821.78;5038885;28;8810;-67
2022/06/09 02:03:50;;;;;;;;;0.50;0.50;;;;;15.23;72.89;100821.19;5039894;28;8832;-67
2022/06/09 02:06:17;;;;;;;;;2.00;1.00;;;;;15.22;72.72;100824.94;5047268;28;8846;-67
2022/06/09 02:08:44;;;;;;;;;2.00;1.00;;;;;15.22;73.02;100826.84;5034632;28;8917;-68
2022/06/09 02:11:12;;;;;;;;;1.00;1.00;;;;;15.21;73.24;100827.88;5044917;28;8836;-67
2022/06/09 02:13:45;;;;;;;;;1.00;1.00;;;;;15.19;73.32;100833.56;5064867;22;9414;-65
2022/06/09 02:16:16;;;;;;;;;2.00;1.00;;;;;15.17;73.04;100830.22;5051471;28;9234;-65
2022/06/09 02:18:47;;;;;;;;;3.00;2.00;;;;;15.15;73.20;100828.78;5034730;28;8865;-65
2022/06/09 02:21:26;;;;;;;;;2.75;1.00;;;;;15.13;73.38;100834.44;5044285;28;9527;-64
2022/06/09 02:23:53;;;;;;;;;1.00;1.00;;;;;15.12;73.06;100843.63;5043596;28;8857;-65
2022/06/09 02:26:21;;;;;;;;;2.33;2.33;;;;;15.09;73.05;100842.19;5034947;28;8840;-65
2022/06/09 02:28:47;;;;;;;;;1.75;1.75;;;;;15.06;73.35;100844.50;5031053;28;8932;-65
2022/06/09 02:31:15;;;;;;;;;1.00;1.00;;;;;15.03;73.25;100851.22;5038134;28;9504;-65
2022/06/09 02:33:42;;;;;;;;;1.67;1.67;;;;;14.99;73.17;100846.44;5040032;28;8836;-65
2022/06/09 02:36:09;;;;;;;;;1.00;1.00;;;;;14.98;73.31;100861.06;5044440;28;8917;-66
2022/06/09 02:38:36;;;;;;;;;2.25;2.25;;;;;14.97;73.35;100859.41;5034076;28;8928;-65
2022/06/09 02:41:03;;;;;;;;;3.00;1.00;;;;;14.95;73.46;100862.34;5045298;28;8832;-64
2022/06/09 02:43:30;;;;;;;;;1.00;1.00;;;;;14.95;73.62;100865.06;5040141;28;9736;-64
2022/06/09 02:45:56;;;;;;;;;2.33;1.00;;;;;14.94;73.63;100867.97;5037858;28;9001;-65
2022/06/09 02:48:23;;;;;;;;;2.67;1.67;;;;;14.94;73.71;100873.41;5047328;28;9035;-64
2022/06/09 02:50:53;;;;;;;;;3.33;2.33;;;;;14.93;73.51;100872.56;5034427;28;9241;-65
2022/06/09 02:53:21;;;;;;;;;1.67;1.67;;;;;14.92;73.45;100867.38;5042904;28;9077;-65
2022/06/09 02:55:48;;;;;;;;;1.33;1.33;;;;;14.92;73.37;100875.53;5040915;28;8937;-64
2022/06/09 02:58:15;;;;;;;;;1.00;1.00;;;;;14.87;73.56;100876.19;5035035;28;9242;-65
2022/06/09 03:00:42;;;;;;;;;2.00;2.00;;;;;14.86;73.44;100870.97;5046950;28;9069;-65
2022/06/09 03:03:14;;;;;;;;;2.67;2.00;;;;;14.83;73.42;100867.66;5047549;28;9249;-65
2022/06/09 03:05:42;;;;;;;;;2.00;2.00;;;;;14.84;73.46;100872.03;5039106;28;9193;-65
2022/06/09 03:08:08;;;;;;;;;1.67;1.67;;;;;14.86;73.53;100873.69;5044855;28;9156;-65
2022/06/09 03:10:36;;;;;;;;;2.00;2.00;;;;;14.84;73.59;100877.44;5033737;28;8975;-65
2022/06/09 03:13:03;;;;;;;;;0.00;0.00;;;;;14.83;73.34;100874.97;5044721;28;8915;-65
2022/06/09 03:15:30;;;;;;;;;1.33;1.33;;;;;14.83;73.71;100888.53;5039639;28;9027;-64
2022/06/09 03:17:57;;;;;;;;;1.00;1.00;;;;;14.80;73.80;100891.66;5036953;28;9084;-64
2022/06/09 03:20:26;;;;;;;;;2.00;1.00;;;;;14.79;73.63;100893.56;5046502;28;9064;-65
2022/06/09 03:22:54;;;;;;;;;1.00;1.00;;;;;14.80;73.52;100903.34;5034564;28;8995;-65
2022/06/09 03:25:21;;;;;;;;;1.33;1.33;;;;;14.79;73.52;100912.53;5042342;28;8999;-65
2022/06/09 03:27:48;;;;;;;;;2.67;2.00;;;;;14.77;73.41;100911.06;5041611;28;9002;-65
2022/06/09 03:30:16;;;;;;;;;1.67;1.67;;;;;14.76;73.70;100915.66;5034670;28;8930;-65
2022/06/09 03:32:42;;;;;;;;;1.00;1.00;;;;;14.75;73.86;100914.00;5046554;28;9072;-65
2022/06/09 03:35:10;;;;;;;;;2.67;1.33;;;;;14.77;73.72;100917.31;5036404;28;9064;-65
2022/06/09 03:37:36;;;;;;;;;2.33;2.33;;;;;14.78;73.66;100921.69;5039927;28;8936;-65
2022/06/09 03:40:05;;;;;;;;;1.67;1.67;;;;;14.78;73.59;100921.69;5044018;28;9001;-65
2022/06/09 03:42:32;;;;;;;;;0.33;0.33;;;;;14.76;73.52;100929.22;5033805;28;8972;-65
2022/06/09 03:44:58;;;;;;;;;7.00;0.33;;;;;14.77;73.73;100939.00;5045032;28;9069;-64
2022/06/09 03:47:25;;;;;;;;;1.00;1.00;;;;;14.78;73.68;100948.78;5038653;28;9055;-64
2022/06/09 03:49:52;;;;;;;;;1.00;1.00;;;;;14.78;73.86;100942.53;5038603;28;8971;-65
2022/06/09 03:52:18;;;;;;;;;3.67;0.67;;;;;14.78;73.83;100950.66;5031229;28;9085;-64
2022/06/09 03:54:45;;;;;;;;;3.67;2.00;;;;;14.77;73.88;100955.25;5046267;28;9064;-65
2022/06/09 03:57:11;;;;;;;;;2.00;1.67;;;;;14.78;73.76;100958.78;5036484;28;9129;-65
2022/06/09 03:59:38;;;;;;;;;1.33;1.33;;;;;14.74;73.93;100952.97;5039418;28;9097;-65
2022/06/09 04:02:08;;;;;;;;;2.00;2.00;;;;;14.77;73.82;100960.69;5036011;28;8998;-65
2022/06/09 04:04:34;;;;;;;;;2.00;2.00;;;;;14.77;73.78;100962.56;5045055;28;9002;-65
2022/06/09 04:07:01;;;;;;;;;1.00;1.00;;;;;14.75;73.85;100968.22;5035123;28;9014;-65
2022/06/09 04:09:28;;;;;;;;;0.33;0.33;;;;;14.84;74.38;100971.47;5041185;28;8923;-65
2022/06/09 04:11:54;;;;;;;;;6.00;2.00;;;;;14.97;73.93;100975.97;5042728;28;9659;-65
2022/06/09 04:14:20;;;;;;;;;1.00;1.00;;;;;14.99;73.52;100980.13;5033282;28;8944;-65
2022/06/09 04:16:47;;;;;;;;;1.00;1.00;;;;;15.00;73.35;100976.38;5046144;28;10481;-65
2022/06/09 04:19:17;;;;;;;;;3.00;3.00;;;;;14.99;73.13;100982.84;5040785;28;9052;-65
2022/06/09 04:21:44;;;;;;;;;1.33;1.33;;;;;14.98;73.61;100988.47;5042514;28;8934;-65
2022/06/09 04:24:11;;;;;;;;;0.00;0.00;;;;;14.97;73.60;100979.50;5048143;28;9038;-65
2022/06/09 04:26:40;;;;;;;;;1.00;1.00;;;;;14.98;73.46;100986.59;5036672;28;8987;-64
2022/06/09 04:29:11;;;;;;;;;1.00;1.00;;;;;14.99;73.75;100982.00;5047210;28;9164;-65
2022/06/09 04:31:39;;;;;;;;;1.25;1.25;;;;;14.99;73.73;100984.69;5044077;28;8988;-65
2022/06/09 04:34:07;;;;;;;;;2.00;2.00;;;;;15.01;73.73;100982.63;5039205;28;8947;-65
2022/06/09 04:36:34;;;;;;;;;1.00;1.00;;;;;15.03;73.61;100985.94;5048334;28;8998;-65
2022/06/09 04:39:02;;;;;;;;;0.75;0.75;;;;;15.04;73.50;100983.00;5038614;28;8996;-65
2022/06/09 04:41:28;;;;;;;;;1.00;1.00;;;;;15.06;73.46;100993.63;5044011;28;8878;-65
2022/06/09 04:43:57;;;;;;;;;1.00;1.00;;;;;15.07;73.58;100992.59;5045931;28;9098;-65
2022/06/09 04:46:24;;;;;;;;;1.00;1.00;;;;;15.10;73.65;101000.25;5052082;28;9010;-65
2022/06/09 04:48:51;;;;;;;;;1.00;1.00;;;;;15.12;73.44;101009.03;5049020;28;8943;-65
2022/06/09 04:51:20;;;;;;;;;1.00;1.00;;;;;15.12;73.34;101008.19;5040653;28;8925;-65
2022/06/09 04:53:47;;;;;;;;;1.00;1.00;;;;;15.12;73.55;101010.91;5041321;28;9025;-66
2022/06/09 04:56:15;;;;;;;;;1.00;1.00;;;;;15.09;73.40;101023.00;5048146;28;8856;-65
2022/06/09 04:58:42;;;;;;;;;2.00;2.00;;;;;15.11;73.75;101026.34;5033504;28;8860;-65
2022/06/09 05:01:17;;;;;;;;;0.75;0.75;;;;;15.15;73.73;101033.00;5038722;28;8826;-66
2022/06/09 05:03:44;;;;;;;;;2.00;1.00;;;;;15.18;73.74;101043.38;5043746;28;8960;-65
2022/06/09 05:06:11;;;;;;;;;3.00;2.00;;;;;15.18;73.39;101029.81;5037808;28;8824;-65
2022/06/09 05:08:40;;;;;;;;;0.75;0.75;;;;;15.23;73.68;101038.16;5048834;28;8998;-66
2022/06/09 05:11:06;;;;;;;;;1.75;1.75;;;;;15.28;73.50;101045.63;5038682;28;8845;-65
2022/06/09 05:13:33;;;;;;;;;2.50;1.00;;;;;15.32;73.69;101047.66;5042872;28;8845;-66
2022/06/09 05:15:59;;;;;;;;;1.00;1.00;;;;;15.37;73.35;101049.72;5045861;28;8911;-65
2022/06/09 05:18:28;;;;;;;;;1.33;1.33;;;;;15.38;73.21;101067.66;5035662;28;8840;-65
2022/06/09 05:20:56;;;;;;;;;2.00;1.25;;;;;15.38;73.08;101059.50;5047591;28;8910;-65
2022/06/09 05:23:24;;;;;;;;;2.00;2.00;;;;;15.38;73.24;101064.09;5032374;28;8812;-65
2022/06/09 05:25:53;;;;;;;;;1.00;1.00;;;;;15.39;73.17;101072.00;5044374;28;8947;-65
2022/06/09 05:28:22;;;;;;;;;2.00;2.00;;;;;15.43;73.18;101073.22;5035535;28;8858;-65
2022/06/09 05:30:49;;;;;;;;;2.00;2.00;;;;;15.47;73.12;101079.03;5018061;28;8907;-65
2022/06/09 05:33:15;;;;;;;;;4.00;1.00;;;;;15.52;72.84;101087.38;5052347;28;8969;-65
2022/06/09 05:35:42;;;;;;;;;1.00;1.00;;;;;15.55;72.80;101086.91;5041176;28;9593;-65
2022/06/09 05:46:30;;;;;;;;;1.00;1.00;;;;;15.57;72.68;101107.38;5048244;28;8852;-65
2022/06/09 05:48:57;;;;;;;;;1.00;1.00;;;;;15.58;72.40;101114.44;5032005;28;8832;-66
2022/06/09 05:51:23;;;;;;;;;0.33;0.00;;;;;15.62;73.00;101122.97;5040233;28;8814;-66
2022/06/09 05:53:50;;;;;;;;;3.50;1.25;;;;;15.63;72.82;101121.09;5039667;28;8995;-66
2022/06/09 05:56:17;;;;;;;;;2.33;2.33;;;;;15.63;72.85;101130.06;5047631;28;8903;-67
2022/06/09 05:58:43;;;;;;;;;2.33;2.33;;;;;15.63;72.49;101132.78;5034918;28;8908;-66
2022/06/09 06:01:12;;;;;;;;;3.00;1.33;;;;;15.64;72.64;101139.03;5045752;28;8910;-66
2022/06/09 06:03:39;;;;;;;;;1.50;1.00;;;;;15.64;72.67;101137.16;5041152;28;8925;-66
2022/06/09 06:08:51;;;;;;;;;1.50;1.50;;;;;15.65;72.23;101149.72;5019389;28;8814;-66
2022/06/09 06:11:18;;;;;;;;;1.25;1.25;;;;;15.67;71.80;101150.31;5043867;28;8832;-66
2022/06/09 06:13:45;;;;;;;;;2.25;1.50;;;;;15.76;72.06;101148.19;5041305;28;8842;-66
2022/06/09 06:16:12;;;;;;;;;1.25;1.25;;;;;15.90;72.20;101157.84;5034952;28;8914;-66
2022/06/09 06:18:59;;;;;;;;;1.50;1.50;;;;;16.04;71.14;101161.28;5022056;28;9729;-66
2022/06/09 06:21:25;;;;;;;;;1.00;1.00;;;;;16.10;70.66;101170.44;5042550;28;8890;-66
2022/06/09 06:23:53;;;;;;;;;2.25;2.00;;;;;16.07;70.35;101171.69;5043417;28;8856;-66
2022/06/09 06:26:20;;;;;;;;;1.75;1.75;;;;;16.09;70.44;101179.66;5033613;28;8862;-66
2022/06/09 06:28:47;;;;;;;;;2.00;1.00;;;;;16.15;69.74;101184.19;5050916;28;8838;-65
2022/06/09 06:31:14;;;;;;;;;0.00;0.00;;;;;16.17;69.73;101191.06;5044046;28;8828;-65
2022/06/09 06:33:40;;;;;;;;;0.25;0.25;;;;;16.18;69.33;101190.00;5041877;28;8838;-66
2022/06/09 06:36:08;;;;;;;;;1.75;1.00;;;;;16.17;68.97;101193.78;5036429;28;8942;-66
2022/06/09 06:38:36;;;;;;;;;2.00;2.00;;;;;16.11;68.10;101191.94;5030812;28;8819;-66
2022/06/09 06:41:04;;;;;;;;;1.00;1.00;;;;;16.10;67.09;101200.31;5035517;28;9618;-66
2022/06/09 06:43:31;;;;;;;;;0.00;0.00;;;;;16.09;67.44;101206.81;5041381;28;9507;-66
2022/06/09 06:45:57;;;;;;;;;1.75;1.00;;;;;16.09;66.44;101210.34;5043638;28;8871;-66
2022/06/09 06:48:24;;;;;;;;;2.75;0.50;;;;;16.12;65.40;101211.78;5034015;28;8931;-66
2022/06/09 06:50:50;;;;;;;;;1.00;1.00;;;;;16.17;65.42;101215.50;5046548;28;8801;-66
2022/06/09 06:53:17;;;;;;;;;1.00;1.00;;;;;16.22;65.27;101223.81;5038035;28;8822;-66
2022/06/09 06:55:43;;;;;;;;;1.75;1.75;;;;;16.29;65.58;101221.88;5037736;28;8852;-66
2022/06/09 06:58:10;;;;;;;;;1.00;1.00;;;;;16.30;64.97;101222.69;5030426;28;8828;-66
2022/06/09 07:00:39;;;;;;;;;2.00;1.00;;;;;16.31;65.36;101230.63;5048686;28;8883;-66
2022/06/09 07:03:07;;;;;;;;;2.50;1.25;;;;;16.33;65.84;101233.13;5039519;28;8833;-66
2022/06/09 07:05:57;;;;;;;;;1.00;0.75;;;;;16.35;65.92;101232.91;5037095;28;8871;-66
2022/06/09 07:08:24;;;;;;;;;1.00;1.00;;;;;16.31;65.02;101236.03;5046652;28;8818;-66
2022/06/09 07:10:52;;;;;;;;;1.00;1.00;;;;;16.28;64.70;101241.09;5034058;28;8805;-66
2022/06/09 07:13:19;;;;;;;;;2.00;1.00;;;;;16.29;64.87;101249.03;5042356;28;8832;-66
2022/06/09 07:15:46;;;;;;;;;1.00;1.00;;;;;16.39;64.32;101237.66;5040397;28;8907;-66
2022/06/09 07:18:12;;;;;;;;;0.50;0.50;;;;;16.53;64.80;101241.09;5034933;28;8804;-65
2022/06/09 07:20:40;;;;;;;;;1.00;1.00;;;;;16.57;63.52;101247.75;5049066;28;8822;-65
2022/06/09 07:23:07;;;;;;;;;0.75;0.75;;;;;16.64;63.72;101253.09;5042769;28;8824;-65
2022/06/09 07:25:35;;;;;;;;;0.75;0.75;;;;;16.67;63.86;101264.34;5039470;28;8845;-65
2022/06/09 07:28:01;;;;;;;;;0.00;0.00;;;;;16.73;63.86;101274.38;5034669;28;8867;-65
2022/06/09 07:30:29;;;;;;;;;1.25;1.25;;;;;16.69;64.19;101266.84;5046259;28;8903;-65
2022/06/09 07:32:56;;;;;;;;;1.00;1.00;;;;;16.67;64.31;101272.50;5034537;28;8798;-65
2022/06/09 07:35:25;;;;;;;;;1.00;1.00;;;;;16.62;64.02;101272.38;5041588;28;8840;-65
2022/06/09 07:37:52;;;;;;;;;1.00;1.00;;;;;16.53;63.92;101273.72;5042026;28;8849;-65
2022/06/09 07:40:19;;;;;;;;;1.00;1.00;;;;;16.53;64.33;101279.97;5033996;28;8820;-65
2022/06/09 07:42:45;;;;;;;;;2.00;0.00;;;;;16.58;64.22;101281.19;5045258;28;8817;-66
2022/06/09 07:45:13;;;;;;;;;0.25;0.00;;;;;16.65;64.43;101287.38;5036412;28;9729;-66
2022/06/09 07:47:40;;;;;;;;;2.25;2.00;;;;;16.70;63.66;101285.66;5039151;28;9536;-66
2022/06/09 07:50:09;;;;;;;;;2.50;2.50;;;;;16.74;63.37;101286.09;5044040;28;8810;-65
2022/06/09 07:52:43;;;;;;;;;2.25;2.00;;;;;16.75;63.70;101283.13;5037132;28;8972;-64
2022/06/09 07:55:10;;;;;;;;;1.75;1.75;;;;;16.82;63.23;101287.69;5047428;28;8894;-64
2022/06/09 07:57:37;;;;;;;;;1.00;1.00;;;;;16.86;63.49;101297.06;5033873;28;8816;-65
2022/06/09 08:00:06;;;;;;;;;2.50;1.25;;;;;16.86;62.97;101303.31;5046598;28;8916;-65
2022/06/09 08:02:37;;;;;;;;;1.00;1.00;;;;;16.90;62.71;101307.25;5045071;28;8818;-65
2022/06/09 08:05:05;;;;;;;;;2.75;2.75;;;;;16.94;62.23;101313.06;5032321;28;8970;-65
2022/06/09 08:07:31;;;;;;;;;1.75;1.25;;;;;16.98;62.67;101306.13;5042975;28;8825;-64
2022/06/09 08:09:58;;;;;;;;;2.00;1.00;;;;;16.94;62.33;101313.91;5040509;28;8847;-65
2022/06/09 08:12:24;;;;;;;;;2.00;1.00;;;;;16.93;62.37;101311.38;5050311;28;8883;-66
2022/06/09 08:14:51;;;;;;;;;1.25;1.25;;;;;16.97;61.57;101315.31;5037765;28;8861;-67
2022/06/09 08:17:17;;;;;;;;;1.50;0.50;;;;;16.90;60.88;101317.31;5045769;28;8852;-66
2022/06/09 08:19:45;;;;;;;;;1.75;1.75;;;;;16.92;61.12;101312.47;5044822;28;8818;-66
2022/06/09 08:22:12;;;;;;;;;1.25;1.25;;;;;17.01;61.59;101327.41;5038381;28;8955;-66
2022/06/09 08:24:38;;;;;;;;;1.00;1.00;;;;;17.10;61.65;101333.41;5048512;28;8842;-66
2022/06/09 08:27:05;;;;;;;;;1.75;1.00;;;;;17.19;61.18;101324.72;5039337;28;8826;-67
2022/06/09 08:29:32;;;;;;;;;2.00;2.00;;;;;17.23;60.49;101344.97;5042440;28;8836;-67
2022/06/09 08:31:59;;;;;;;;;0.50;0.50;;;;;17.18;60.48;101341.28;5046313;28;8826;-67
2022/06/09 08:34:26;;;;;;;;;3.75;2.75;;;;;17.13;60.29;101341.09;5036264;28;8832;-65
2022/06/09 08:36:52;;;;;;;;;3.00;3.00;;;;;17.20;60.42;101339.16;5048782;28;8813;-67
2022/06/09 08:39:19;;;;;;;;;3.00;3.00;;;;;17.24;59.71;101346.63;5041389;28;8813;-67
2022/06/09 08:41:52;;;;;;;;;3.00;3.00;;;;;17.26;60.10;101355.41;5042596;28;8898;-65
2022/06/09 08:44:36;;;;;;;;;2.25;2.25;;;;;17.27;60.03;101367.97;5049610;28;8834;-66
2022/06/09 08:47:26;;;;;;;;;2.00;2.00;;;;;17.32;60.30;101380.06;5025102;28;8846;-67
2022/06/09 08:50:19;;;;;;;;;2.75;1.75;;;;;17.35;59.47;101366.00;5038403;28;8856;-67
2022/06/09 08:52:48;;;;;;;;;2.50;1.25;;;;;17.36;58.42;101370.38;5049529;28;9527;-67
2022/06/09 08:55:29;;;;;;;;;2.00;2.00;;;;;17.33;58.81;101379.00;5039937;28;8814;-66
2022/06/09 08:58:29;;;;;;;;;3.00;2.75;;;;;17.37;59.20;101382.91;5039461;28;8894;-66
2022/06/09 09:01:07;;;;;;;;;0.00;0.00;;;;;17.44;59.64;101381.78;5022047;28;8854;-66
2022/06/09 09:04:22;;;;;;;;;1.00;1.00;;;;;17.40;59.51;101390.63;5031501;28;8834;-66
2022/06/09 09:06:52;;;;;;;;;1.25;1.00;;;;;17.45;59.06;101382.63;4997441;28;8857;-66
2022/06/09 09:09:24;;;;;;;;;1.00;1.00;;;;;17.59;59.15;101389.59;5044691;28;8926;-66
2022/06/09 09:12:18;;;;;;;;;1.00;1.00;;;;;17.67;58.96;101394.72;5044754;28;8814;-66
2022/06/09 09:15:03;;;;;;;;;4.00;2.00;;;;;17.68;58.05;101390.94;5013544;28;8813;-66
2022/06/09 09:18:03;;;;;;;;;3.00;2.50;;;;;17.65;58.34;101391.38;5041751;28;8845;-66
2022/06/09 09:21:07;;;;;;;;;5.75;1.50;;;;;17.72;58.44;101394.88;5048721;28;8899;-67
2022/06/09 09:23:46;;;;;;;;;1.00;1.00;;;;;17.85;56.94;101390.34;5041042;28;10007;-67
2022/06/09 09:26:43;;;;;;;;;1.75;1.75;;;;;17.85;57.11;101395.78;5037176;28;8894;-67
2022/06/09 09:29:16;;;;;;;;;1.25;1.25;;;;;17.85;57.80;101398.53;5002347;28;8842;-66
2022/06/09 09:31:59;;;;;;;;;4.00;2.00;;;;;18.02;57.46;101405.00;5041295;28;8828;-67
2022/06/09 09:34:37;;;;;;;;;2.00;2.00;;;;;18.04;56.35;101408.34;5048581;28;8845;-66
2022/06/09 09:37:22;;;;;;;;;1.75;1.75;;;;;18.01;55.97;101416.97;5037671;28;8848;-65
2022/06/09 09:39:56;;;;;;;;;1.50;1.00;;;;;17.98;56.79;101426.41;5040152;28;8832;-66
2022/06/09 09:42:27;;;;;;;;;2.25;1.00;;;;;18.03;56.98;101436.66;5048718;28;8814;-67
2022/06/09 09:45:11;;;;;;;;;2.50;2.00;;;;;18.17;56.51;101437.28;5020561;28;8826;-66
2022/06/09 09:47:55;;;;;;;;;2.00;2.00;;;;;18.22;56.28;101432.81;5041112;28;8812;-66
2022/06/09 09:50:31;;;;;;;;;2.00;2.00;;;;;18.21;55.93;101442.03;5048080;28;9544;-66
2022/06/09 09:53:02;;;;;;;;;3.50;2.00;;;;;18.25;56.25;101445.16;5021882;28;9541;-66
2022/06/09 09:55:34;;;;;;;;;1.50;1.25;;;;;18.25;55.77;101456.03;5042492;28;9515;-66
2022/06/09 09:58:34;;;;;;;;;2.00;1.00;;;;;18.28;56.09;101456.41;5044976;28;8841;-66
2022/06/09 10:01:03;;;;;;;;;0.50;0.50;;;;;18.43;56.88;101461.47;5014211;28;8806;-66
2022/06/09 10:10:26;;;;;;;;;1.75;1.75;;;;;18.57;55.89;101472.19;4974154;28;8856;-66
2022/06/09 10:13:16;;;;;;;;;1.00;1.00;;;;;18.65;55.23;101472.69;5024478;28;9509;-67
2022/06/09 10:16:02;;;;;;;;;3.00;3.00;;;;;18.67;55.06;101470.53;5036745;28;8813;-67
2022/06/09 10:18:29;;;;;;;;;1.75;1.75;;;;;18.66;55.00;101479.78;5046053;28;8830;-67
2022/06/09 10:21:13;;;;;;;;;0.50;0.50;;;;;18.76;55.54;101480.09;5038208;28;9684;-67
2022/06/09 10:23:54;;;;;;;;;3.25;3.00;;;;;18.88;54.78;101477.41;5039361;28;8832;-67
2022/06/09 10:26:31;;;;;;;;;2.75;2.75;;;;;18.99;54.29;101483.94;5046073;28;8903;-67
2022/06/09 10:29:04;;;;;;;;;2.00;2.00;;;;;19.02;54.50;101487.03;5021036;28;9049;-66
2022/06/09 10:31:51;;;;;;;;;1.25;1.25;;;;;18.98;53.86;101491.28;5041659;28;8833;-66
2022/06/09 10:34:34;;;;;;;;;1.00;1.00;;;;;19.06;53.67;101487.38;5045924;28;8830;-67
2022/06/09 10:37:10;;;;;;;;;1.75;1.75;;;;;19.00;53.39;101494.63;5020770;28;8915;-67
2022/06/09 10:43:57;;;;;;;;;1.00;1.00;;;;;18.83;52.96;101504.53;5034753;28;8834;-66
2022/06/09 10:46:36;;;;;;;;;2.00;2.00;;;;;18.70;53.11;101508.28;5034109;28;8813;-67
2022/06/09 10:55:33;;;;;;;;;2.00;2.00;;;;;18.57;54.53;101513.09;5019719;28;8806;-67
2022/06/09 10:58:09;;;;;;;;;1.00;1.00;;;;;18.60;54.87;101513.44;5035484;28;8963;-67
2022/06/09 11:00:39;;;;;;;;;2.25;1.75;;;;;18.77;54.68;101508.19;5047010;28;8814;-66
2022/06/09 11:03:18;;;;;;;;;2.33;2.33;;;;;18.82;53.63;101516.50;5041085;28;8824;-65
2022/06/09 11:06:08;;;;;;;;;3.00;3.00;;;;;18.83;53.69;101512.72;5041792;28;8834;-67
2022/06/09 11:08:43;;;;;;;;;2.50;2.50;;;;;18.91;53.52;101531.47;5009406;28;8909;-67
2022/06/09 11:11:29;;;;;;;;;3.00;2.00;;;;;18.89;53.16;101530.06;5045646;28;8820;-65
2022/06/09 11:14:32;;;;;;;;;1.00;1.00;;;;;18.95;53.43;101535.41;5041696;28;8826;-66
2022/06/09 11:17:25;;;;;;;;;1.50;1.00;;;;;19.00;52.14;101537.47;5020530;28;8919;-66
2022/06/09 11:19:54;;;;;;;;;2.75;2.25;;;;;19.03;52.63;101535.06;5037940;28;8891;-66
2022/06/09 11:22:35;;;;;;;;;1.50;1.50;;;;;19.00;52.46;101542.91;5046506;28;9601;-66
2022/06/09 11:25:21;;;;;;;;;2.00;2.00;;;;;19.08;51.21;101537.13;5021208;28;8817;-66
2022/06/09 11:28:02;;;;;;;;;1.00;1.00;;;;;19.12;51.96;101545.66;5049649;28;8834;-66
2022/06/09 11:30:51;;;;;;;;;2.75;2.75;;;;;19.13;52.60;101544.59;5033739;28;8945;-66
2022/06/09 11:33:46;;;;;;;;;4.00;2.25;;;;;19.18;52.02;101544.72;5041104;28;9542;-65
2022/06/09 11:36:26;;;;;;;;;2.00;2.00;;;;;19.30;52.13;101536.56;5044110;28;9524;-65
2022/06/09 11:39:01;;;;;;;;;2.50;2.25;;;;;19.29;51.64;101538.47;5023501;28;8959;-66
2022/06/09 11:41:52;;;;;;;;;3.00;2.00;;;;;19.45;51.42;101539.66;5034370;28;8846;-65
2022/06/09 11:44:27;;;;;;;;;2.00;2.00;;;;;19.49;51.71;101544.41;5029655;28;8910;-65
2022/06/09 11:46:59;;;;;;;;;3.50;2.25;;;;;19.35;51.47;101553.06;5030176;28;8842;-65
2022/06/09 11:49:33;;;;;;;;;3.25;3.25;;;;;19.30;51.27;101563.84;5027788;28;8840;-65
2022/06/09 11:52:03;;;;;;;;;2.00;2.00;;;;;19.20;51.44;101556.22;5043094;28;8911;-64
2022/06/09 11:54:44;;;;;;;;;2.75;1.25;;;;;19.26;51.76;101556.13;5036187;28;8852;-65
2022/06/09 11:57:19;;;;;;;;;2.00;2.00;;;;;19.35;51.78;101553.06;5029423;28;8832;-66
2022/06/09 11:59:57;;;;;;;;;2.50;2.50;;;;;19.43;51.19;101555.44;5041197;28;8911;-64
2022/06/09 12:02:39;;;;;;;;;2.00;1.00;;;;;19.43;51.88;101561.72;5039128;28;8808;-65
2022/06/09 12:05:16;;;;;;;;;3.25;2.25;;;;;19.50;51.34;101567.09;5043276;28;8836;-64
2022/06/09 12:08:10;;;;;;;;;3.00;3.00;;;;;19.48;50.47;101561.03;5034326;28;9567;-66
2022/06/09 12:10:55;;;;;;;;;2.25;1.75;;;;;19.44;49.76;101568.03;5031620;28;8820;-66
2022/06/09 12:13:25;;;;;;;;;2.00;2.00;;;;;19.37;49.77;101570.06;5032872;28;8830;-66
2022/06/09 12:16:02;;;;;;;;;1.75;1.75;;;;;19.40;49.43;101566.81;5028962;28;9527;-65
2022/06/09 12:18:31;;;;;;;;;2.75;2.25;;;;;19.47;50.35;101567.56;5045803;28;8846;-65
2022/06/09 12:21:05;;;;;;;;;1.25;1.00;;;;;19.53;49.63;101574.81;5033233;28;8830;-66
2022/06/09 12:23:59;;;;;;;;;2.75;2.75;;;;;19.63;49.37;101572.34;5039857;28;8842;-66
2022/06/09 12:26:42;;;;;;;;;1.00;1.00;;;;;19.78;50.04;101571.06;5045599;28;8814;-67